createdAt,value
2023-05-25T00:01:16.370Z,21.00
2023-05-25T00:03:43.577Z,21.00
2023-05-25T00:06:10.836Z,21.00
2023-05-25T00:08:40.615Z,21.00
2023-05-25T00:11:07.412Z,21.00
2023-05-25T00:13:34.195Z,21.00
2023-05-25T00:16:01.005Z,21.00
2023-05-25T00:18:27.757Z,21.00
2023-05-25T00:20:54.562Z,21.00
2023-05-25T00:23:21.379Z,21.00
2023-05-25T00:25:48.105Z,21.00
2023-05-25T00:28:14.858Z,21.00
2023-05-25T00:30:41.795Z,21.00
2023-05-25T00:33:10.464Z,21.00
2023-05-25T00:35:37.869Z,21.00
2023-05-25T00:38:04.698Z,21.00
2023-05-25T00:40:31.440Z,20.90
2023-05-25T00:42:59.674Z,21.00
2023-05-25T00:45:26.467Z,21.00
2023-05-25T00:47:53.454Z,21.00
2023-05-25T00:50:35.029Z,20.90
2023-05-25T00:53:01.923Z,20.90
2023-05-25T00:55:33.616Z,20.90
2023-05-25T00:58:02.162Z,20.90
2023-05-25T01:00:30.619Z,20.90
2023-05-25T01:02:59.294Z,20.90
2023-05-25T01:05:30.729Z,20.90
2023-05-25T01:08:01.699Z,20.90
2023-05-25T01:10:32.284Z,20.90
2023-05-25T01:13:01.932Z,20.90
2023-05-25T01:15:31.000Z,20.90
2023-05-25T01:17:59.357Z,20.90
2023-05-25T01:20:30.636Z,20.90
2023-05-25T01:23:11.773Z,20.90
2023-05-25T01:25:47.442Z,20.90
2023-05-25T01:28:25.730Z,20.90
2023-05-25T01:30:53.468Z,20.90
2023-05-25T01:33:21.080Z,20.90
2023-05-25T01:35:48.772Z,20.80
2023-05-25T01:38:15.836Z,20.80
2023-05-25T01:40:42.549Z,20.90
2023-05-25T01:43:09.339Z,20.80
2023-05-25T01:45:36.869Z,20.80
2023-05-25T01:48:18.945Z,20.80
2023-05-25T01:50:59.173Z,20.80
2023-05-25T01:53:39.939Z,20.80
2023-05-25T01:56:11.425Z,20.80
2023-05-25T01:58:46.890Z,20.80
2023-05-25T02:01:15.869Z,20.80
2023-05-25T02:03:42.903Z,20.80
2023-05-25T02:06:09.977Z,20.80
2023-05-25T02:08:36.776Z,20.80
2023-05-25T02:11:03.756Z,20.80
2023-05-25T02:13:30.785Z,20.80
2023-05-25T02:15:57.662Z,20.80
2023-05-25T02:18:24.500Z,20.70
2023-05-25T02:20:54.208Z,20.80
2023-05-25T02:23:21.081Z,20.80
2023-05-25T02:25:47.870Z,20.80
2023-05-25T02:28:15.546Z,20.80
2023-05-25T02:30:42.383Z,20.70
2023-05-25T02:33:09.157Z,20.70
2023-05-25T02:35:36.107Z,20.70
2023-05-25T02:38:03.010Z,20.70
2023-05-25T02:40:29.842Z,20.70
2023-05-25T02:42:56.612Z,20.70
2023-05-25T02:45:23.375Z,20.70
2023-05-25T02:47:50.449Z,20.70
2023-05-25T02:50:17.829Z,20.70
2023-05-25T02:52:47.456Z,20.70
2023-05-25T02:55:14.595Z,20.70
2023-05-25T02:57:42.556Z,20.70
2023-05-25T03:00:12.338Z,20.60
2023-05-25T03:02:39.651Z,20.60
2023-05-25T03:05:07.647Z,20.60
2023-05-25T03:07:35.664Z,20.60
2023-05-25T03:10:02.464Z,20.60
2023-05-25T03:12:29.624Z,20.60
2023-05-25T03:14:56.554Z,20.60
2023-05-25T03:17:23.556Z,20.60
2023-05-25T03:19:50.348Z,20.60
2023-05-25T03:22:17.131Z,20.60
2023-05-25T03:24:46.622Z,20.60
2023-05-25T03:27:14.052Z,20.60
2023-05-25T03:29:41.062Z,20.60
2023-05-25T03:32:09.267Z,20.60
2023-05-25T03:34:37.335Z,20.60
2023-05-25T03:37:05.788Z,20.60
2023-05-25T03:39:32.622Z,20.50
2023-05-25T03:41:59.864Z,20.50
2023-05-25T03:44:26.796Z,20.50
2023-05-25T03:46:53.717Z,20.50
2023-05-25T03:49:20.607Z,20.50
2023-05-25T03:51:47.407Z,20.50
2023-05-25T03:54:14.205Z,20.50
2023-05-25T03:56:41.034Z,20.50
2023-05-25T03:59:07.772Z,20.50
2023-05-25T04:01:38.044Z,20.50
2023-05-25T04:04:06.525Z,20.50
2023-05-25T04:06:33.885Z,20.50
2023-05-25T04:09:01.284Z,20.50
2023-05-25T04:11:29.089Z,20.50
2023-05-25T04:13:55.970Z,20.50
2023-05-25T04:16:26.504Z,20.50
2023-05-25T04:18:54.621Z,20.50
2023-05-25T04:21:21.528Z,20.50
2023-05-25T04:23:48.392Z,20.50
2023-05-25T04:26:18.133Z,20.40
2023-05-25T04:28:46.901Z,20.40
2023-05-25T04:31:27.125Z,20.40
2023-05-25T04:34:21.586Z,20.40
2023-05-25T04:37:05.367Z,20.40
2023-05-25T04:39:32.929Z,20.30
2023-05-25T04:42:04.356Z,20.30
2023-05-25T04:44:32.737Z,20.30
2023-05-25T04:47:01.348Z,20.30
2023-05-25T04:49:33.978Z,20.40
2023-05-25T04:52:01.010Z,20.30
2023-05-25T04:54:29.702Z,20.30
2023-05-25T04:56:59.187Z,20.30
2023-05-25T04:59:26.154Z,20.30
2023-05-25T05:01:53.002Z,20.30
2023-05-25T05:04:19.847Z,20.30
2023-05-25T05:06:47.563Z,20.30
2023-05-25T05:09:23.049Z,20.20
2023-05-25T05:11:49.871Z,20.20
2023-05-25T05:14:18.527Z,20.20
2023-05-25T05:16:48.028Z,20.20
2023-05-25T05:19:14.926Z,20.20
2023-05-25T05:21:42.385Z,20.20
2023-05-25T05:24:09.195Z,20.20
2023-05-25T05:26:48.307Z,20.20
2023-05-25T05:29:26.804Z,20.20
2023-05-25T05:31:55.569Z,20.20
2023-05-25T05:34:22.435Z,20.20
2023-05-25T05:36:58.108Z,20.20
2023-05-25T05:39:27.453Z,20.20
2023-05-25T05:41:55.697Z,20.20
2023-05-25T05:44:25.205Z,20.20
2023-05-25T05:47:00.064Z,20.20
2023-05-25T05:49:31.784Z,20.20
2023-05-25T05:52:00.341Z,20.20
2023-05-25T05:54:27.893Z,20.20
2023-05-25T05:56:56.228Z,20.20
2023-05-25T05:59:23.192Z,20.20
2023-05-25T06:01:50.002Z,20.20
2023-05-25T06:04:17.008Z,20.20
2023-05-25T06:06:45.396Z,20.20
2023-05-25T06:09:12.689Z,20.20
2023-05-25T06:11:40.084Z,20.20
2023-05-25T06:14:08.005Z,20.20
2023-05-25T06:16:36.483Z,20.20
2023-05-25T06:19:03.488Z,20.20
2023-05-25T06:21:30.310Z,20.20
2023-05-25T06:23:57.880Z,20.20
2023-05-25T06:26:24.952Z,20.20
2023-05-25T06:28:52.348Z,20.20
2023-05-25T06:31:19.189Z,20.20
2023-05-25T06:33:46.099Z,20.20
2023-05-25T06:36:15.773Z,20.20
2023-05-25T06:38:43.687Z,20.20
2023-05-25T06:41:14.897Z,20.20
2023-05-25T06:43:42.573Z,20.20
2023-05-25T06:46:18.080Z,20.20
2023-05-25T06:48:46.072Z,20.20
2023-05-25T06:51:13.191Z,20.20
2023-05-25T06:53:40.097Z,20.20
2023-05-25T06:56:06.986Z,20.20
2023-05-25T06:58:33.801Z,20.20
2023-05-25T07:01:01.154Z,20.20
2023-05-25T07:03:27.986Z,20.20
2023-05-25T07:05:55.097Z,20.20
2023-05-25T07:08:21.825Z,20.20
2023-05-25T07:10:50.108Z,20.20
2023-05-25T07:13:17.406Z,20.20
2023-05-25T07:15:44.610Z,20.20
2023-05-25T07:18:12.460Z,20.20
2023-05-25T07:20:42.321Z,20.20
2023-05-25T07:23:10.178Z,20.20
2023-05-25T07:25:38.878Z,20.20
2023-05-25T07:28:05.887Z,20.20
2023-05-25T07:30:32.813Z,20.20
2023-05-25T07:33:01.010Z,20.20
2023-05-25T07:35:27.788Z,20.20
2023-05-25T07:38:01.938Z,20.20
2023-05-25T07:40:28.881Z,20.20
2023-05-25T07:43:02.913Z,20.20
2023-05-25T07:45:29.692Z,20.20
2023-05-25T07:47:56.526Z,20.20
2023-05-25T07:50:23.957Z,20.20
2023-05-25T07:52:51.027Z,20.20
2023-05-25T07:55:20.070Z,20.30
2023-05-25T07:57:46.861Z,20.30
2023-05-25T08:00:14.334Z,20.30
2023-05-25T08:02:41.823Z,20.30
2023-05-25T08:05:10.091Z,20.30
2023-05-25T08:07:39.585Z,20.30
2023-05-25T08:10:08.630Z,20.30
2023-05-25T08:12:48.035Z,20.30
2023-05-25T08:15:17.092Z,20.30
2023-05-25T08:17:44.341Z,20.30
2023-05-25T08:20:11.911Z,20.30
2023-05-25T08:22:38.706Z,20.30
2023-05-25T08:25:07.007Z,20.30
2023-05-25T08:27:36.089Z,20.30
2023-05-25T08:30:05.899Z,20.30
2023-05-25T08:32:32.884Z,20.30
2023-05-25T08:34:59.689Z,20.30
2023-05-25T08:37:26.442Z,20.30
2023-05-25T08:39:53.227Z,20.30
2023-05-25T08:42:20.250Z,20.30
2023-05-25T08:44:47.031Z,20.30
2023-05-25T08:47:16.862Z,20.30
2023-05-25T08:49:45.451Z,20.30
2023-05-25T08:52:15.123Z,20.30
2023-05-25T08:54:45.777Z,20.30
2023-05-25T08:57:12.506Z,20.30
2023-05-25T09:00:10.940Z,20.30
2023-05-25T09:02:59.813Z,20.40
2023-05-25T09:05:27.991Z,20.40
2023-05-25T09:07:56.118Z,20.40
2023-05-25T09:10:24.498Z,20.40
2023-05-25T09:12:52.388Z,20.30
2023-05-25T09:15:19.139Z,20.40
2023-05-25T09:17:46.112Z,20.40
2023-05-25T09:20:13.822Z,20.40
2023-05-25T09:22:41.989Z,20.40
2023-05-25T09:25:10.795Z,20.40
2023-05-25T09:27:38.474Z,20.40
2023-05-25T09:30:06.639Z,20.40
2023-05-25T09:32:33.588Z,20.40
2023-05-25T09:35:14.414Z,20.40
2023-05-25T09:37:42.453Z,20.40
2023-05-25T09:40:14.183Z,20.50
2023-05-25T09:42:42.403Z,20.50
2023-05-25T09:45:09.812Z,20.50
2023-05-25T09:47:37.510Z,20.50
2023-05-25T09:50:05.708Z,20.50
2023-05-25T09:52:32.669Z,20.50
2023-05-25T09:54:59.713Z,20.50
2023-05-25T09:57:28.065Z,20.50
2023-05-25T09:59:54.842Z,20.50
2023-05-25T10:02:21.666Z,20.50
2023-05-25T10:04:48.550Z,20.50
2023-05-25T10:07:16.352Z,20.50
2023-05-25T10:09:46.362Z,20.50
2023-05-25T10:12:17.292Z,20.50
2023-05-25T10:14:45.897Z,20.60
2023-05-25T10:17:18.473Z,20.60
2023-05-25T10:19:57.935Z,20.60
2023-05-25T10:22:46.825Z,20.60
2023-05-25T10:25:13.513Z,20.60
2023-05-25T10:27:48.274Z,20.50
2023-05-25T10:30:16.354Z,20.60
2023-05-25T10:32:45.204Z,20.60
2023-05-25T10:35:13.926Z,20.60
2023-05-25T10:37:41.307Z,20.60
2023-05-25T10:40:09.448Z,20.60
2023-05-25T10:42:37.609Z,20.60
2023-05-25T10:45:09.093Z,20.60
2023-05-25T10:47:44.106Z,20.60
2023-05-25T10:50:34.745Z,20.60
2023-05-25T10:53:27.735Z,20.60
2023-05-25T10:55:54.544Z,20.60
2023-05-25T10:58:23.579Z,20.60
2023-05-25T11:01:06.858Z,20.60
2023-05-25T11:03:51.730Z,20.60
2023-05-25T11:06:21.570Z,20.60
2023-05-25T11:08:49.224Z,20.60
2023-05-25T11:11:16.042Z,20.60
2023-05-25T11:13:50.432Z,20.60
2023-05-25T11:16:22.173Z,20.60
2023-05-25T11:18:57.962Z,20.60
2023-05-25T11:21:27.612Z,20.70
2023-05-25T11:24:10.645Z,20.70
2023-05-25T11:26:37.744Z,20.70
2023-05-25T11:29:16.173Z,20.70
2023-05-25T11:31:43.875Z,20.70
2023-05-25T11:34:12.020Z,20.70
2023-05-25T11:36:39.246Z,20.70
2023-05-25T11:39:14.218Z,20.70
2023-05-25T11:42:03.879Z,20.70
2023-05-25T11:44:36.670Z,20.70
2023-05-25T11:47:18.881Z,20.70
2023-05-25T11:49:47.635Z,20.70
2023-05-25T11:52:18.703Z,20.70
2023-05-25T11:54:46.446Z,20.70
2023-05-25T11:57:26.005Z,20.70
2023-05-25T11:59:54.720Z,20.70
2023-05-25T12:02:22.305Z,20.70
2023-05-25T12:04:56.277Z,20.70
2023-05-25T12:07:23.956Z,20.80
2023-05-25T12:09:50.743Z,20.80
2023-05-25T12:12:17.936Z,20.80
2023-05-25T12:14:49.560Z,20.80
2023-05-25T12:17:18.175Z,20.80
2023-05-25T12:19:45.536Z,20.80
2023-05-25T12:22:13.421Z,20.80
2023-05-25T12:24:40.951Z,20.80
2023-05-25T12:27:22.544Z,20.80
2023-05-25T12:29:49.751Z,20.80
2023-05-25T12:32:16.831Z,20.80
2023-05-25T12:34:43.657Z,20.80
2023-05-25T12:37:22.812Z,20.80
2023-05-25T12:39:50.705Z,20.80
2023-05-25T12:42:18.308Z,20.80
2023-05-25T12:44:46.465Z,20.80
2023-05-25T12:47:22.399Z,20.80
2023-05-25T12:49:53.872Z,20.80
2023-05-25T12:52:33.929Z,20.80
2023-05-25T12:55:22.022Z,20.80
2023-05-25T12:57:52.672Z,20.80
2023-05-25T13:00:21.169Z,20.80
2023-05-25T13:02:50.204Z,20.80
2023-05-25T13:05:44.181Z,20.80
2023-05-25T13:08:11.020Z,20.80
2023-05-25T13:10:38.146Z,20.80
2023-05-25T13:13:04.988Z,20.80
2023-05-25T13:15:31.923Z,20.80
2023-05-25T13:17:58.952Z,20.80
2023-05-25T13:20:29.862Z,20.80
2023-05-25T13:22:56.904Z,20.80
2023-05-25T13:25:25.423Z,20.80
2023-05-25T13:27:53.079Z,20.80
2023-05-25T13:30:22.776Z,20.90
2023-05-25T13:32:51.760Z,20.80
2023-05-25T13:35:34.250Z,20.80
2023-05-25T13:38:01.185Z,20.90
2023-05-25T13:40:28.408Z,20.90
2023-05-25T13:42:55.380Z,20.90
2023-05-25T13:45:22.804Z,20.90
2023-05-25T13:47:49.815Z,20.90
2023-05-25T13:50:16.706Z,20.90
2023-05-25T13:52:43.492Z,20.90
2023-05-25T13:55:10.668Z,20.80
2023-05-25T13:57:37.699Z,20.80
2023-05-25T14:00:06.106Z,20.80
2023-05-25T14:02:35.070Z,20.80
2023-05-25T14:05:01.938Z,20.70
2023-05-25T14:07:28.752Z,20.70
2023-05-25T14:09:56.682Z,20.70
2023-05-25T14:12:24.880Z,20.60
2023-05-25T14:14:51.762Z,20.60
2023-05-25T14:17:18.559Z,20.60
2023-05-25T14:19:45.518Z,20.60
2023-05-25T14:22:14.140Z,20.60
2023-05-25T14:24:41.599Z,20.60
2023-05-25T14:27:08.409Z,20.60
2023-05-25T14:29:35.468Z,20.60
2023-05-25T14:32:02.456Z,20.60
2023-05-25T14:34:29.552Z,20.60
2023-05-25T14:36:56.593Z,20.70
2023-05-25T14:39:23.805Z,20.60
2023-05-25T14:41:50.832Z,20.70
2023-05-25T14:44:17.611Z,20.60
2023-05-25T14:46:44.424Z,20.70
2023-05-25T14:49:11.221Z,20.70
2023-05-25T14:51:38.264Z,20.70
2023-05-25T14:54:07.163Z,20.70
2023-05-25T14:56:34.437Z,20.70
2023-05-25T14:59:01.246Z,20.70
2023-05-25T15:01:29.374Z,20.70
2023-05-25T15:03:57.011Z,20.70
2023-05-25T15:06:24.035Z,20.70
2023-05-25T15:08:50.903Z,20.70
2023-05-25T15:11:18.163Z,20.70
2023-05-25T15:13:45.120Z,20.70
2023-05-25T15:16:13.119Z,20.70
2023-05-25T15:18:40.061Z,20.70
2023-05-25T15:21:06.888Z,20.70
2023-05-25T15:23:33.610Z,20.70
2023-05-25T15:26:04.590Z,20.70
2023-05-25T15:28:31.655Z,20.80
2023-05-25T15:31:00.847Z,20.80
2023-05-25T15:33:40.065Z,20.80
2023-05-25T15:36:16.632Z,20.80
2023-05-25T15:38:44.404Z,20.80
2023-05-25T15:41:16.106Z,20.80
2023-05-25T15:43:49.769Z,20.80
2023-05-25T15:46:16.773Z,20.80
2023-05-25T15:48:43.585Z,20.80
2023-05-25T15:51:10.995Z,20.80
2023-05-25T15:53:37.713Z,20.80
2023-05-25T15:56:04.576Z,20.80
2023-05-25T15:58:34.183Z,20.80
2023-05-25T16:01:01.553Z,20.80
2023-05-25T16:03:29.346Z,20.80
2023-05-25T16:05:56.516Z,20.80
2023-05-25T16:08:23.692Z,20.80
2023-05-25T16:10:50.611Z,20.80
2023-05-25T16:13:17.348Z,20.80
2023-05-25T16:15:44.452Z,20.80
2023-05-25T16:18:11.494Z,20.80
2023-05-25T16:20:38.273Z,20.80
2023-05-25T16:23:05.071Z,20.80
2023-05-25T16:25:31.845Z,20.80
2023-05-25T16:27:58.599Z,20.80
2023-05-25T16:30:25.355Z,20.80
2023-05-25T16:32:52.266Z,20.90
2023-05-25T16:35:20.027Z,20.90
2023-05-25T16:37:46.855Z,20.90
2023-05-25T16:40:13.623Z,20.90
2023-05-25T16:42:40.440Z,20.90
2023-05-25T16:45:07.993Z,20.90
2023-05-25T16:47:34.742Z,20.90
2023-05-25T16:50:01.454Z,20.90
2023-05-25T16:52:28.201Z,20.90
2023-05-25T16:54:56.292Z,20.90
2023-05-25T16:57:23.064Z,20.90
2023-05-25T16:59:51.180Z,20.90
2023-05-25T17:02:19.932Z,20.90
2023-05-25T17:04:46.728Z,21.00
2023-05-25T17:07:13.589Z,21.00
2023-05-25T17:09:40.771Z,20.90
2023-05-25T17:12:07.934Z,21.00
2023-05-25T17:14:34.755Z,21.00
2023-05-25T17:17:01.593Z,20.90
2023-05-25T17:19:28.423Z,21.00
2023-05-25T17:21:55.224Z,21.00
2023-05-25T17:24:22.005Z,21.00
2023-05-25T17:26:50.163Z,21.00
2023-05-25T17:29:17.519Z,21.00
2023-05-25T17:31:45.699Z,21.00
2023-05-25T17:34:14.773Z,21.00
2023-05-25T17:36:43.013Z,21.00
2023-05-25T17:39:09.830Z,21.00
2023-05-25T17:41:36.617Z,21.00
2023-05-25T17:44:03.378Z,21.00
2023-05-25T17:46:30.242Z,21.00
2023-05-25T17:48:57.166Z,21.00
2023-05-25T17:51:23.949Z,21.10
2023-05-25T17:53:51.066Z,21.00
2023-05-25T17:56:17.788Z,21.10
2023-05-25T17:58:47.345Z,21.10
2023-05-25T18:01:14.972Z,21.10
2023-05-25T18:03:42.113Z,21.10
2023-05-25T18:06:08.930Z,21.10
2023-05-25T18:08:35.813Z,21.10
2023-05-25T18:11:02.672Z,21.10
2023-05-25T18:13:29.405Z,21.10
2023-05-25T18:15:56.232Z,21.10
2023-05-25T18:18:24.786Z,21.10
2023-05-25T18:20:51.574Z,21.10
2023-05-25T18:23:18.431Z,21.10
2023-05-25T18:25:45.638Z,21.10
2023-05-25T18:28:14.753Z,21.10
2023-05-25T18:30:42.701Z,21.10
2023-05-25T18:33:10.614Z,21.10
2023-05-25T18:35:39.027Z,21.10
2023-05-25T18:38:06.571Z,21.10
2023-05-25T18:40:33.390Z,21.10
2023-05-25T18:43:00.152Z,21.10
2023-05-25T18:45:26.972Z,21.10
2023-05-25T18:47:54.160Z,21.10
2023-05-25T18:50:21.592Z,21.10
2023-05-25T18:52:51.017Z,21.10
2023-05-25T18:55:19.047Z,21.10
2023-05-25T18:57:46.633Z,21.10
2023-05-25T19:00:14.007Z,21.10
2023-05-25T19:02:41.009Z,21.10
2023-05-25T19:05:08.728Z,21.10
2023-05-25T19:07:46.971Z,21.10
2023-05-25T19:10:21.986Z,21.10
2023-05-25T19:12:48.776Z,21.10
2023-05-25T19:15:15.765Z,21.10
2023-05-25T19:17:42.603Z,21.10
2023-05-25T19:20:10.183Z,21.10
2023-05-25T19:22:37.016Z,21.10
2023-05-25T19:25:04.149Z,21.10
2023-05-25T19:27:30.945Z,21.10
2023-05-25T19:29:58.993Z,21.10
2023-05-25T19:32:26.196Z,21.20
2023-05-25T19:34:53.061Z,21.10
2023-05-25T19:37:19.843Z,21.20
2023-05-25T19:39:46.637Z,21.20
2023-05-25T19:42:13.572Z,21.20
2023-05-25T19:44:41.250Z,21.20
2023-05-25T19:47:08.050Z,21.20
2023-05-25T19:49:34.843Z,21.20
2023-05-25T19:52:01.659Z,21.20
2023-05-25T19:54:28.451Z,21.20
2023-05-25T19:56:55.540Z,21.20
2023-05-25T19:59:22.438Z,21.20
2023-05-25T20:01:49.395Z,21.20
2023-05-25T20:04:16.265Z,21.20
2023-05-25T20:06:42.973Z,21.20
2023-05-25T20:09:12.579Z,21.20
2023-05-25T20:11:39.448Z,21.20
2023-05-25T20:14:07.306Z,21.20
2023-05-25T20:16:34.345Z,21.20
2023-05-25T20:19:01.775Z,21.20
2023-05-25T20:21:28.910Z,21.20
2023-05-25T20:23:57.187Z,21.20
2023-05-25T20:26:23.975Z,21.20
2023-05-25T20:28:51.099Z,21.20
2023-05-25T20:31:18.040Z,21.20
2023-05-25T20:33:44.824Z,21.20
2023-05-25T20:36:12.349Z,21.20
2023-05-25T20:38:39.904Z,21.20
2023-05-25T20:41:06.645Z,21.20
2023-05-25T20:43:33.443Z,21.20
2023-05-25T20:46:00.685Z,21.20
2023-05-25T20:48:27.725Z,21.20
2023-05-25T20:50:54.494Z,21.20
2023-05-25T20:53:21.349Z,21.10
2023-05-25T20:55:48.167Z,21.10
2023-05-25T20:58:15.001Z,21.10
2023-05-25T21:00:41.803Z,21.10
2023-05-25T21:03:08.754Z,21.10
2023-05-25T21:05:36.326Z,21.10
2023-05-25T21:08:03.599Z,21.20
2023-05-25T21:10:30.514Z,21.10
2023-05-25T21:12:57.304Z,21.10
2023-05-25T21:15:26.295Z,21.10
2023-05-25T21:17:53.116Z,21.10
2023-05-25T21:20:20.126Z,21.10
2023-05-25T21:22:46.983Z,21.10
2023-05-25T21:25:13.804Z,21.10
2023-05-25T21:27:40.765Z,21.10
2023-05-25T21:30:08.274Z,21.10
2023-05-25T21:32:35.041Z,21.10
2023-05-25T21:35:01.871Z,21.10
2023-05-25T21:37:28.708Z,21.10
2023-05-25T21:39:55.521Z,21.10
2023-05-25T21:42:22.229Z,21.10
2023-05-25T21:44:48.986Z,21.10
2023-05-25T21:47:15.904Z,21.10
2023-05-25T21:49:42.617Z,21.10
2023-05-25T21:52:18.876Z,21.10
2023-05-25T21:54:45.615Z,21.10
2023-05-25T21:57:12.486Z,21.10
2023-05-25T21:59:39.296Z,21.10
2023-05-25T22:02:06.300Z,21.10
2023-05-25T22:04:33.231Z,21.10
2023-05-25T22:06:59.959Z,21.10
2023-05-25T22:09:26.730Z,21.00
2023-05-25T22:11:53.468Z,21.00
2023-05-25T22:14:20.302Z,21.00
2023-05-25T22:16:47.341Z,21.00
2023-05-25T22:19:14.081Z,21.00
2023-05-25T22:21:40.960Z,21.00
2023-05-25T22:24:07.691Z,21.00
2023-05-25T22:26:34.489Z,21.00
2023-05-25T22:29:01.241Z,21.00
2023-05-25T22:31:28.205Z,21.00
2023-05-25T22:33:54.985Z,21.00
2023-05-25T22:36:21.790Z,21.00
2023-05-25T22:38:48.586Z,21.00
2023-05-25T22:41:15.375Z,21.00
2023-05-25T22:43:42.062Z,20.90
2023-05-25T22:46:09.452Z,21.00
2023-05-25T22:48:36.219Z,21.00
2023-05-25T22:51:03.229Z,21.00
2023-05-25T22:53:30.019Z,20.90
2023-05-25T22:55:56.860Z,20.90
2023-05-25T22:58:23.658Z,20.90
2023-05-25T23:00:50.560Z,20.90
2023-05-25T23:03:17.515Z,20.90
2023-05-25T23:05:44.470Z,20.90
2023-05-25T23:08:11.417Z,20.90
2023-05-25T23:10:38.159Z,20.90
2023-05-25T23:13:06.307Z,20.90
2023-05-25T23:15:33.280Z,20.90
2023-05-25T23:18:00.095Z,20.90
2023-05-25T23:20:26.946Z,20.80
2023-05-25T23:22:53.731Z,20.80
2023-05-25T23:25:20.851Z,20.90
2023-05-25T23:27:47.626Z,20.80
2023-05-25T23:30:14.727Z,20.80
2023-05-25T23:32:41.546Z,20.80
2023-05-25T23:35:08.876Z,20.80
2023-05-25T23:37:36.004Z,20.80
2023-05-25T23:40:02.813Z,20.80
2023-05-25T23:42:29.562Z,20.80
2023-05-25T23:44:56.982Z,20.80
2023-05-25T23:47:23.702Z,20.70
2023-05-25T23:49:50.513Z,20.80
2023-05-25T23:52:17.311Z,20.80
2023-05-25T23:54:44.104Z,20.80
2023-05-25T23:57:10.816Z,20.70
2023-05-25T23:59:37.565Z,20.70
